This is the latest recevied weather packets stored in our database for station/object W2SBL-1. If no packets are shown the sender has not sent any weather packets the latest 10 day(s).
| Time | Temp. | Humidity | Pressure | Rain* | Wind** | Luminosity | Snow |
|---|---|---|---|---|---|---|---|
| 1777344620 | 10.56° C | 52% | 1024.2 hPa | - | - | - | - |
| 1777343720 | 9.44° C | 52% | 1028.4 hPa | - | - | - | - |
| 1777342820 | 11.11° C | 52% | 1024.3 hPa | - | - | - | - |
| 1777341920 | 11.11° C | 52% | 1024.5 hPa | - | - | - | - |
| 1777341019 | 11.67° C | 52% | 1024.7 hPa | - | - | - | - |
| 1777340118 | 11.67° C | 52% | 1024.8 hPa | - | - | - | - |
| 1777339218 | 12.22° C | 52% | 1024.6 hPa | - | - | - | - |
| 1777338318 | 12.78° C | 52% | 1024.5 hPa | - | - | - | - |
| 1777337418 | 13.33° C | 52% | 1024.3 hPa | - | - | - | - |
| 1777336518 | 13.89° C | 52% | 1024 hPa | - | - | - | - |
| 1777335618 | 14.44° C | 52% | 1023.9 hPa | - | - | - | - |
| 1777334718 | 15° C | 52% | 1023.7 hPa | - | - | - | - |
| 1777333818 | 15.56° C | 52% | 1023.6 hPa | - | - | - | - |
| 1777332918 | 16.11° C | 52% | 1023.3 hPa | - | - | - | - |
| 1777332018 | 16.67° C | 52% | 1023.4 hPa | - | - | - | - |
| 1777331118 | 17.78° C | 52% | 1023.5 hPa | - | - | - | - |
| 1777330218 | 18.33° C | 52% | 1023.3 hPa | - | - | - | - |
| 1777329318 | 20° C | 51% | 1023.5 hPa | - | - | - | - |
| 1777328417 | 22.22° C | 48% | 1023.6 hPa | - | - | - | - |
| 1777327517 | 23.89° C | 46% | 1023.7 hPa | - | - | - | - |
| 1777326617 | 24.44° C | 46% | 1023.8 hPa | - | - | - | - |
| 1777325717 | 25° C | 46% | 1023.6 hPa | - | - | - | - |
| 1777324817 | 26.11° C | 45% | 1023.7 hPa | - | - | - | - |
| 1777323917 | 26.67° C | 44% | 1023.4 hPa | - | - | - | - |
| 1777323017 | 27.22° C | 43% | 1023.8 hPa | - | - | - | - |
* Rain since midnight (hover to see other rain measurements)
** Current wind speed in m/s (hover to see current wind gust speed)